X  Zatvorit Metar udaje     LZPP Piešťany Airport
Teplota
20°C Teplota
14°C Rosny bod
69% Vlhkost



Vietor
8 KM/h
5 MPH
2 M/S
4 KTS



320°
SZ
Aktualne pocasie

Prevazne polooblacno Prevazne polooblacno
Tlak 1009.82 (hPa) - 29.82 (inHg)
Viditelnost 6 (mile) - 9.7 (km)
Letisko
Kod letiska LZPP

Miesto: Piešťany Airport
Vzdialenost: 31 (km)

Metar:
LZPP 221400Z 32004KT 280V350 9999 SCT030 20/14 Q1010

Cas: 22-05-2024 16:00 CEST